sensor_id;sensor_type;location;lat;lon;timestamp;pressure;altitude;pressure_sealevel;temperature;humidity
55424;BME280;41294;42.666;23.350;2022-08-16T00:02:15;94570.94;;;20.18;98.06
55424;BME280;41294;42.666;23.350;2022-08-16T00:04:40;94585.97;;;20.21;97.90
55424;BME280;41294;42.666;23.350;2022-08-16T00:07:06;94586.13;;;20.10;98.31
55424;BME280;41294;42.666;23.350;2022-08-16T00:09:32;94591.25;;;20.08;98.50
55424;BME280;41294;42.666;23.350;2022-08-16T00:11:57;94582.53;;;20.08;98.36
55424;BME280;41294;42.666;23.350;2022-08-16T00:14:27;94584.16;;;19.92;99.17
55424;BME280;41294;42.666;23.350;2022-08-16T00:16:53;94589.94;;;19.96;98.99
55424;BME280;41294;42.666;23.350;2022-08-16T00:19:22;94590.31;;;20.06;98.61
55424;BME280;41294;42.666;23.350;2022-08-16T00:21:49;94592.06;;;20.03;98.43
55424;BME280;41294;42.666;23.350;2022-08-16T00:24:14;94588.72;;;19.97;99.00
55424;BME280;41294;42.666;23.350;2022-08-16T00:26:42;94592.31;;;19.82;100.00
55424;BME280;41294;42.666;23.350;2022-08-16T00:29:09;94586.25;;;19.81;100.00
55424;BME280;41294;42.666;23.350;2022-08-16T00:31:34;94582.47;;;19.71;100.00
55424;BME280;41294;42.666;23.350;2022-08-16T00:34:00;94589.41;;;19.61;100.00
55424;BME280;41294;42.666;23.350;2022-08-16T00:36:26;94596.69;;;19.61;100.00
55424;BME280;41294;42.666;23.350;2022-08-16T00:38:51;94602.41;;;19.70;100.00
55424;BME280;41294;42.666;23.350;2022-08-16T00:41:17;94591.22;;;19.72;99.82
55424;BME280;41294;42.666;23.350;2022-08-16T00:43:43;94595.91;;;19.66;100.00
55424;BME280;41294;42.666;23.350;2022-08-16T00:46:17;94587.81;;;19.71;100.00
55424;BME280;41294;42.666;23.350;2022-08-16T00:48:44;94590.44;;;19.77;100.00
55424;BME280;41294;42.666;23.350;2022-08-16T00:51:11;94604.16;;;19.86;99.86
55424;BME280;41294;42.666;23.350;2022-08-16T00:53:37;94614.03;;;19.73;100.00
55424;BME280;41294;42.666;23.350;2022-08-16T00:56:06;94620.31;;;19.75;99.71
55424;BME280;41294;42.666;23.350;2022-08-16T00:58:35;94611.44;;;19.85;99.13
55424;BME280;41294;42.666;23.350;2022-08-16T01:01:04;94606.50;;;19.95;98.47
55424;BME280;41294;42.666;23.350;2022-08-16T01:03:30;94615.34;;;19.84;98.75
55424;BME280;41294;42.666;23.350;2022-08-16T01:05:55;94615.72;;;19.94;98.57
55424;BME280;41294;42.666;23.350;2022-08-16T01:08:23;94615.00;;;19.93;98.27
55424;BME280;41294;42.666;23.350;2022-08-16T01:10:50;94612.63;;;19.90;98.62
55424;BME280;41294;42.666;23.350;2022-08-16T01:13:21;94615.06;;;19.88;98.65
55424;BME280;41294;42.666;23.350;2022-08-16T01:15:51;94622.03;;;19.73;99.55
55424;BME280;41294;42.666;23.350;2022-08-16T01:18:20;94624.50;;;19.71;99.96
55424;BME280;41294;42.666;23.350;2022-08-16T01:26:53;94630.16;;;19.85;99.37
55424;BME280;41294;42.666;23.350;2022-08-16T01:29:24;94632.81;;;19.85;99.03
55424;BME280;41294;42.666;23.350;2022-08-16T01:31:52;94638.81;;;19.91;99.03
55424;BME280;41294;42.666;23.350;2022-08-16T01:34:18;94633.94;;;19.95;98.56
55424;BME280;41294;42.666;23.350;2022-08-16T01:36:44;94632.88;;;19.80;99.41
55424;BME280;41294;42.666;23.350;2022-08-16T01:39:15;94633.81;;;19.83;99.33
55424;BME280;41294;42.666;23.350;2022-08-16T01:41:41;94639.50;;;19.74;99.92
55424;BME280;41294;42.666;23.350;2022-08-16T01:44:08;94645.31;;;19.78;100.00
55424;BME280;41294;42.666;23.350;2022-08-16T01:46:38;94637.84;;;19.71;100.00
55424;BME280;41294;42.666;23.350;2022-08-16T01:49:07;94640.09;;;19.67;100.00
55424;BME280;41294;42.666;23.350;2022-08-16T01:51:35;94642.41;;;19.76;100.00
55424;BME280;41294;42.666;23.350;2022-08-16T01:54:01;94642.84;;;19.80;99.99
55424;BME280;41294;42.666;23.350;2022-08-16T01:56:27;94647.88;;;19.65;100.00
55424;BME280;41294;42.666;23.350;2022-08-16T01:58:55;94644.25;;;19.62;100.00
55424;BME280;41294;42.666;23.350;2022-08-16T02:01:21;94637.34;;;19.72;100.00
55424;BME280;41294;42.666;23.350;2022-08-16T02:03:47;94644.63;;;19.72;100.00
55424;BME280;41294;42.666;23.350;2022-08-16T02:06:13;94647.38;;;19.66;100.00
55424;BME280;41294;42.666;23.350;2022-08-16T02:08:38;94652.81;;;19.79;100.00
55424;BME280;41294;42.666;23.350;2022-08-16T02:11:06;94655.66;;;19.86;100.00
55424;BME280;41294;42.666;23.350;2022-08-16T02:13:34;94667.66;;;19.98;99.53
55424;BME280;41294;42.666;23.350;2022-08-16T02:16:00;94662.66;;;19.89;99.78
55424;BME280;41294;42.666;23.350;2022-08-16T02:18:25;94670.34;;;19.98;99.71
55424;BME280;41294;42.666;23.350;2022-08-16T02:20:52;94682.06;;;19.95;100.00
55424;BME280;41294;42.666;23.350;2022-08-16T02:23:18;94697.84;;;19.93;100.00
55424;BME280;41294;42.666;23.350;2022-08-16T02:25:44;94693.47;;;19.90;100.00
55424;BME280;41294;42.666;23.350;2022-08-16T02:28:12;94703.75;;;19.86;100.00
55424;BME280;41294;42.666;23.350;2022-08-16T02:30:38;94712.66;;;19.94;100.00
55424;BME280;41294;42.666;23.350;2022-08-16T02:33:04;94713.03;;;20.04;100.00
55424;BME280;41294;42.666;23.350;2022-08-16T02:35:30;94714.72;;;20.07;100.00
55424;BME280;41294;42.666;23.350;2022-08-16T02:37:56;94721.16;;;20.17;99.47
55424;BME280;41294;42.666;23.350;2022-08-16T02:40:23;94721.66;;;20.15;98.91
55424;BME280;41294;42.666;23.350;2022-08-16T02:42:50;94719.19;;;20.17;98.79
55424;BME280;41294;42.666;23.350;2022-08-16T02:45:17;94719.19;;;20.17;98.01
55424;BME280;41294;42.666;23.350;2022-08-16T02:47:43;94708.38;;;20.28;99.00
55424;BME280;41294;42.666;23.350;2022-08-16T02:50:09;94707.00;;;20.40;99.44
55424;BME280;41294;42.666;23.350;2022-08-16T02:52:34;94707.06;;;20.16;100.00
55424;BME280;41294;42.666;23.350;2022-08-16T02:55:00;94705.25;;;20.06;100.00
55424;BME280;41294;42.666;23.350;2022-08-16T02:57:26;94716.19;;;20.26;100.00
55424;BME280;41294;42.666;23.350;2022-08-16T02:59:51;94711.69;;;20.16;100.00
55424;BME280;41294;42.666;23.350;2022-08-16T03:02:16;94705.91;;;20.12;100.00
55424;BME280;41294;42.666;23.350;2022-08-16T03:04:42;94696.38;;;20.16;100.00
55424;BME280;41294;42.666;23.350;2022-08-16T03:07:08;94699.91;;;20.06;100.00
55424;BME280;41294;42.666;23.350;2022-08-16T03:09:34;94699.75;;;19.98;100.00
55424;BME280;41294;42.666;23.350;2022-08-16T03:12:01;94683.72;;;19.93;100.00
55424;BME280;41294;42.666;23.350;2022-08-16T03:14:27;94679.84;;;19.94;100.00
55424;BME280;41294;42.666;23.350;2022-08-16T03:16:52;94678.03;;;19.83;100.00
55424;BME280;41294;42.666;23.350;2022-08-16T03:19:18;94664.22;;;19.80;100.00
55424;BME280;41294;42.666;23.350;2022-08-16T03:21:44;94679.47;;;19.84;100.00
55424;BME280;41294;42.666;23.350;2022-08-16T03:24:11;94665.66;;;19.81;100.00
55424;BME280;41294;42.666;23.350;2022-08-16T03:26:37;94667.09;;;19.82;100.00
55424;BME280;41294;42.666;23.350;2022-08-16T03:29:03;94677.25;;;19.65;100.00
55424;BME280;41294;42.666;23.350;2022-08-16T03:31:29;94675.47;;;19.73;100.00
55424;BME280;41294;42.666;23.350;2022-08-16T03:33:54;94667.91;;;19.77;100.00
55424;BME280;41294;42.666;23.350;2022-08-16T03:36:20;94676.63;;;19.77;100.00
55424;BME280;41294;42.666;23.350;2022-08-16T03:38:45;94679.31;;;19.77;100.00
55424;BME280;41294;42.666;23.350;2022-08-16T03:41:11;94677.09;;;19.81;100.00
55424;BME280;41294;42.666;23.350;2022-08-16T03:43:36;94680.25;;;19.80;100.00
55424;BME280;41294;42.666;23.350;2022-08-16T03:46:03;94692.78;;;19.90;100.00
55424;BME280;41294;42.666;23.350;2022-08-16T03:48:32;94685.81;;;20.05;100.00
55424;BME280;41294;42.666;23.350;2022-08-16T03:50:59;94691.25;;;20.37;100.00
55424;BME280;41294;42.666;23.350;2022-08-16T03:53:25;94680.78;;;20.57;100.00
55424;BME280;41294;42.666;23.350;2022-08-16T03:55:50;94677.66;;;21.03;100.00
55424;BME280;41294;42.666;23.350;2022-08-16T03:58:16;94674.84;;;21.40;100.00
55424;BME280;41294;42.666;23.350;2022-08-16T04:00:42;94676.91;;;21.34;100.00
55424;BME280;41294;42.666;23.350;2022-08-16T04:03:08;94669.00;;;20.97;100.00
55424;BME280;41294;42.666;23.350;2022-08-16T04:05:36;94676.78;;;20.82;100.00
55424;BME280;41294;42.666;23.350;2022-08-16T04:08:03;94673.22;;;20.74;100.00
55424;BME280;41294;42.666;23.350;2022-08-16T04:10:29;94669.91;;;21.31;100.00
55424;BME280;41294;42.666;23.350;2022-08-16T04:12:56;94666.97;;;21.60;99.06
55424;BME280;41294;42.666;23.350;2022-08-16T04:15:22;94669.25;;;21.82;97.34
55424;BME280;41294;42.666;23.350;2022-08-16T04:17:48;94671.78;;;21.36;98.73
55424;BME280;41294;42.666;23.350;2022-08-16T04:20:14;94672.13;;;20.82;100.00
55424;BME280;41294;42.666;23.350;2022-08-16T04:22:40;94676.50;;;20.98;100.00
55424;BME280;41294;42.666;23.350;2022-08-16T04:25:08;94674.31;;;20.84;100.00
55424;BME280;41294;42.666;23.350;2022-08-16T04:27:34;94672.66;;;20.81;100.00
55424;BME280;41294;42.666;23.350;2022-08-16T04:30:03;94676.59;;;20.93;100.00
55424;BME280;41294;42.666;23.350;2022-08-16T04:32:30;94675.38;;;20.75;100.00
55424;BME280;41294;42.666;23.350;2022-08-16T04:34:56;94687.63;;;20.71;100.00
55424;BME280;41294;42.666;23.350;2022-08-16T04:37:21;94687.53;;;21.39;100.00
55424;BME280;41294;42.666;23.350;2022-08-16T04:39:47;94684.19;;;21.77;98.97
55424;BME280;41294;42.666;23.350;2022-08-16T04:42:16;94682.84;;;21.58;100.00
55424;BME280;41294;42.666;23.350;2022-08-16T04:44:46;94674.56;;;20.99;100.00
55424;BME280;41294;42.666;23.350;2022-08-16T04:47:12;94679.59;;;20.34;100.00
55424;BME280;41294;42.666;23.350;2022-08-16T04:49:38;94662.53;;;20.00;100.00
55424;BME280;41294;42.666;23.350;2022-08-16T04:52:04;94667.47;;;19.49;100.00
55424;BME280;41294;42.666;23.350;2022-08-16T04:54:29;94673.03;;;19.51;100.00
55424;BME280;41294;42.666;23.350;2022-08-16T04:56:55;94689.38;;;20.13;100.00
55424;BME280;41294;42.666;23.350;2022-08-16T04:59:21;94673.44;;;21.52;100.00
55424;BME280;41294;42.666;23.350;2022-08-16T05:01:46;94683.22;;;22.39;93.64
55424;BME280;41294;42.666;23.350;2022-08-16T05:04:11;94683.69;;;22.51;89.02
55424;BME280;41294;42.666;23.350;2022-08-16T05:06:37;94693.47;;;22.15;91.81
55424;BME280;41294;42.666;23.350;2022-08-16T05:09:03;94704.09;;;22.67;88.36
55424;BME280;41294;42.666;23.350;2022-08-16T05:11:29;94697.94;;;23.53;84.24
55424;BME280;41294;42.666;23.350;2022-08-16T05:13:55;94703.16;;;23.59;81.93
55424;BME280;41294;42.666;23.350;2022-08-16T05:16:24;94688.78;;;22.75;85.22
55424;BME280;41294;42.666;23.350;2022-08-16T05:18:53;94692.63;;;23.20;85.61
55424;BME280;41294;42.666;23.350;2022-08-16T05:21:19;94698.38;;;24.28;81.58
55424;BME280;41294;42.666;23.350;2022-08-16T05:23:46;94701.03;;;25.73;76.23
55424;BME280;41294;42.666;23.350;2022-08-16T05:26:11;94702.84;;;26.47;73.43
55424;BME280;41294;42.666;23.350;2022-08-16T05:28:37;94707.97;;;26.75;70.26
55424;BME280;41294;42.666;23.350;2022-08-16T05:31:02;94702.38;;;27.37;67.13
55424;BME280;41294;42.666;23.350;2022-08-16T05:33:28;94704.84;;;27.42;66.01
55424;BME280;41294;42.666;23.350;2022-08-16T05:35:54;94707.94;;;27.14;66.79
55424;BME280;41294;42.666;23.350;2022-08-16T05:38:19;94693.75;;;27.31;67.26
55424;BME280;41294;42.666;23.350;2022-08-16T05:40:55;94692.25;;;27.37;67.05
55424;BME280;41294;42.666;23.350;2022-08-16T05:43:21;94692.16;;;27.93;65.56
55424;BME280;41294;42.666;23.350;2022-08-16T05:45:47;94692.06;;;27.67;67.01
55424;BME280;41294;42.666;23.350;2022-08-16T05:48:12;94701.81;;;28.38;63.64
55424;BME280;41294;42.666;23.350;2022-08-16T05:50:38;94694.94;;;27.13;66.00
55424;BME280;41294;42.666;23.350;2022-08-16T05:53:04;94696.00;;;25.32;71.43
55424;BME280;41294;42.666;23.350;2022-08-16T05:55:30;94694.25;;;24.62;76.79
55424;BME280;41294;42.666;23.350;2022-08-16T05:57:55;94691.66;;;25.81;73.35
55424;BME280;41294;42.666;23.350;2022-08-16T06:00:21;94686.06;;;26.88;69.83
55424;BME280;41294;42.666;23.350;2022-08-16T06:02:46;94685.19;;;26.85;67.70
55424;BME280;41294;42.666;23.350;2022-08-16T06:05:15;94689.91;;;26.46;69.58
55424;BME280;41294;42.666;23.350;2022-08-16T06:07:41;94694.91;;;25.13;73.40
55424;BME280;41294;42.666;23.350;2022-08-16T06:10:07;94693.53;;;26.72;67.84
55424;BME280;41294;42.666;23.350;2022-08-16T06:12:32;94693.72;;;26.28;69.12
55424;BME280;41294;42.666;23.350;2022-08-16T06:15:00;94699.75;;;27.46;66.47
55424;BME280;41294;42.666;23.350;2022-08-16T06:17:28;94689.50;;;28.70;61.96
55424;BME280;41294;42.666;23.350;2022-08-16T06:19:54;94688.97;;;28.55;62.42
55424;BME280;41294;42.666;23.350;2022-08-16T06:22:19;94692.34;;;28.72;61.50
55424;BME280;41294;42.666;23.350;2022-08-16T06:24:45;94697.44;;;28.42;62.36
55424;BME280;41294;42.666;23.350;2022-08-16T06:27:10;94690.69;;;27.02;65.98
55424;BME280;41294;42.666;23.350;2022-08-16T06:29:36;94692.47;;;27.80;64.84
55424;BME280;41294;42.666;23.350;2022-08-16T06:32:01;94689.28;;;29.38;59.45
55424;BME280;41294;42.666;23.350;2022-08-16T06:34:27;94682.59;;;29.94;57.37
55424;BME280;41294;42.666;23.350;2022-08-16T06:36:53;94679.94;;;29.67;58.27
55424;BME280;41294;42.666;23.350;2022-08-16T06:39:19;94680.47;;;29.47;58.76
55424;BME280;41294;42.666;23.350;2022-08-16T06:41:44;94682.03;;;29.14;59.47
55424;BME280;41294;42.666;23.350;2022-08-16T06:44:10;94677.13;;;29.03;60.02
55424;BME280;41294;42.666;23.350;2022-08-16T06:46:36;94675.78;;;30.49;56.46
55424;BME280;41294;42.666;23.350;2022-08-16T06:49:05;94679.38;;;31.41;54.59
55424;BME280;41294;42.666;23.350;2022-08-16T06:51:32;94669.25;;;32.13;52.17
55424;BME280;41294;42.666;23.350;2022-08-16T06:53:57;94673.03;;;32.41;50.77
55424;BME280;41294;42.666;23.350;2022-08-16T06:56:22;94678.03;;;32.02;51.03
55424;BME280;41294;42.666;23.350;2022-08-16T06:58:49;94672.25;;;29.83;54.74
55424;BME280;41294;42.666;23.350;2022-08-16T07:01:14;94673.03;;;28.85;58.46
55424;BME280;41294;42.666;23.350;2022-08-16T07:03:40;94660.81;;;29.75;56.94
55424;BME280;41294;42.666;23.350;2022-08-16T07:06:05;94644.16;;;28.28;61.03
55424;BME280;41294;42.666;23.350;2022-08-16T07:08:32;94648.13;;;28.96;59.06
55424;BME280;41294;42.666;23.350;2022-08-16T07:10:57;94651.34;;;29.47;56.91
55424;BME280;41294;42.666;23.350;2022-08-16T07:13:23;94652.41;;;31.54;52.39
55424;BME280;41294;42.666;23.350;2022-08-16T07:15:49;94642.84;;;31.44;52.04
55424;BME280;41294;42.666;23.350;2022-08-16T07:18:17;94646.19;;;31.33;52.06
55424;BME280;41294;42.666;23.350;2022-08-16T07:20:44;94651.03;;;31.04;53.83
55424;BME280;41294;42.666;23.350;2022-08-16T07:23:10;94642.38;;;31.47;51.34
55424;BME280;41294;42.666;23.350;2022-08-16T07:25:35;94639.84;;;29.94;54.69
55424;BME280;41294;42.666;23.350;2022-08-16T07:28:02;94626.38;;;29.77;55.56
55424;BME280;41294;42.666;23.350;2022-08-16T07:30:28;94635.66;;;30.69;53.35
55424;BME280;41294;42.666;23.350;2022-08-16T07:32:54;94637.91;;;31.52;51.65
55424;BME280;41294;42.666;23.350;2022-08-16T07:35:20;94630.19;;;30.78;52.09
55424;BME280;41294;42.666;23.350;2022-08-16T07:37:46;94628.78;;;31.17;51.59
55424;BME280;41294;42.666;23.350;2022-08-16T07:40:12;94633.34;;;30.75;53.05
55424;BME280;41294;42.666;23.350;2022-08-16T07:42:38;94641.44;;;28.97;57.94
55424;BME280;41294;42.666;23.350;2022-08-16T07:45:04;94638.34;;;27.15;63.27
55424;BME280;41294;42.666;23.350;2022-08-16T07:47:30;94644.31;;;28.99;58.04
55424;BME280;41294;42.666;23.350;2022-08-16T07:49:56;94644.28;;;30.08;54.81
55424;BME280;41294;42.666;23.350;2022-08-16T07:52:22;94629.72;;;27.74;61.06
55424;BME280;41294;42.666;23.350;2022-08-16T07:54:48;94632.03;;;28.29;60.79
55424;BME280;41294;42.666;23.350;2022-08-16T07:57:13;94631.78;;;29.58;57.07
55424;BME280;41294;42.666;23.350;2022-08-16T07:59:39;94636.16;;;27.96;61.05
55424;BME280;41294;42.666;23.350;2022-08-16T08:02:04;94628.38;;;30.33;55.00
55424;BME280;41294;42.666;23.350;2022-08-16T08:04:30;94643.47;;;30.84;53.58
55424;BME280;41294;42.666;23.350;2022-08-16T08:06:58;94653.72;;;30.08;54.94
55424;BME280;41294;42.666;23.350;2022-08-16T08:09:24;94643.63;;;29.63;55.91
55424;BME280;41294;42.666;23.350;2022-08-16T08:11:49;94646.00;;;29.95;55.24
55424;BME280;41294;42.666;23.350;2022-08-16T08:14:16;94636.91;;;29.09;57.23
55424;BME280;41294;42.666;23.350;2022-08-16T08:16:41;94637.16;;;30.22;55.37
55424;BME280;41294;42.666;23.350;2022-08-16T08:19:07;94641.00;;;30.97;53.82
55424;BME280;41294;42.666;23.350;2022-08-16T08:21:37;94631.66;;;30.41;54.26
55424;BME280;41294;42.666;23.350;2022-08-16T08:24:03;94644.56;;;29.94;55.48
55424;BME280;41294;42.666;23.350;2022-08-16T08:26:29;94636.69;;;29.98;54.88
55424;BME280;41294;42.666;23.350;2022-08-16T08:28:54;94638.78;;;29.71;56.21
55424;BME280;41294;42.666;23.350;2022-08-16T08:31:20;94638.72;;;31.33;52.67
55424;BME280;41294;42.666;23.350;2022-08-16T08:33:46;94637.09;;;32.65;49.06
55424;BME280;41294;42.666;23.350;2022-08-16T08:36:14;94629.09;;;33.58;46.76
55424;BME280;41294;42.666;23.350;2022-08-16T08:38:41;94633.03;;;34.03;46.15
55424;BME280;41294;42.666;23.350;2022-08-16T08:41:08;94632.25;;;32.98;47.43
55424;BME280;41294;42.666;23.350;2022-08-16T08:43:34;94632.88;;;32.20;48.26
55424;BME280;41294;42.666;23.350;2022-08-16T08:46:02;94636.09;;;31.14;51.09
55424;BME280;41294;42.666;23.350;2022-08-16T08:48:28;94636.41;;;32.11;48.93
55424;BME280;41294;42.666;23.350;2022-08-16T08:50:53;94634.44;;;32.56;47.46
55424;BME280;41294;42.666;23.350;2022-08-16T08:53:19;94626.47;;;32.92;43.27
55424;BME280;41294;42.666;23.350;2022-08-16T08:55:44;94629.88;;;32.37;44.53
55424;BME280;41294;42.666;23.350;2022-08-16T08:58:14;94634.78;;;33.40;42.94
55424;BME280;41294;42.666;23.350;2022-08-16T09:00:39;94633.00;;;34.26;41.67
55424;BME280;41294;42.666;23.350;2022-08-16T09:03:04;94627.16;;;33.84;40.23
55424;BME280;41294;42.666;23.350;2022-08-16T09:05:30;94624.69;;;33.53;40.87
55424;BME280;41294;42.666;23.350;2022-08-16T09:07:55;94621.41;;;34.03;40.57
55424;BME280;41294;42.666;23.350;2022-08-16T09:10:21;94608.91;;;34.36;40.35
55424;BME280;41294;42.666;23.350;2022-08-16T09:12:47;94612.09;;;35.07;38.06
55424;BME280;41294;42.666;23.350;2022-08-16T09:15:13;94611.69;;;35.13;38.53
55424;BME280;41294;42.666;23.350;2022-08-16T09:17:39;94618.09;;;35.71;37.09
55424;BME280;41294;42.666;23.350;2022-08-16T09:20:08;94626.59;;;35.90;36.34
55424;BME280;41294;42.666;23.350;2022-08-16T09:22:34;94620.53;;;35.51;37.46
55424;BME280;41294;42.666;23.350;2022-08-16T09:25:00;94632.81;;;34.99;37.46
55424;BME280;41294;42.666;23.350;2022-08-16T09:27:26;94635.53;;;34.85;38.40
55424;BME280;41294;42.666;23.350;2022-08-16T09:29:53;94628.09;;;34.49;39.07
55424;BME280;41294;42.666;23.350;2022-08-16T09:32:18;94627.50;;;34.76;38.56
55424;BME280;41294;42.666;23.350;2022-08-16T09:34:44;94614.94;;;35.23;37.88
55424;BME280;41294;42.666;23.350;2022-08-16T09:37:10;94620.88;;;34.67;39.01
55424;BME280;41294;42.666;23.350;2022-08-16T09:39:43;94622.50;;;34.23;39.60
55424;BME280;41294;42.666;23.350;2022-08-16T09:42:09;94620.81;;;34.29;39.51
55424;BME280;41294;42.666;23.350;2022-08-16T09:44:35;94615.94;;;34.03;39.04
55424;BME280;41294;42.666;23.350;2022-08-16T09:47:01;94611.44;;;34.32;39.37
55424;BME280;41294;42.666;23.350;2022-08-16T09:49:26;94614.28;;;34.59;38.90
55424;BME280;41294;42.666;23.350;2022-08-16T09:51:52;94618.25;;;35.08;37.92
55424;BME280;41294;42.666;23.350;2022-08-16T09:54:20;94608.41;;;35.03;37.98
55424;BME280;41294;42.666;23.350;2022-08-16T09:56:47;94622.56;;;34.11;38.39
55424;BME280;41294;42.666;23.350;2022-08-16T09:59:13;94610.97;;;34.49;38.46
55424;BME280;41294;42.666;23.350;2022-08-16T10:01:40;94614.59;;;34.40;37.95
55424;BME280;41294;42.666;23.350;2022-08-16T10:04:07;94613.44;;;34.32;38.22
55424;BME280;41294;42.666;23.350;2022-08-16T10:06:34;94609.81;;;33.79;38.91
55424;BME280;41294;42.666;23.350;2022-08-16T10:09:01;94615.06;;;33.53;39.15
55424;BME280;41294;42.666;23.350;2022-08-16T10:11:27;94613.88;;;33.55;39.29
55424;BME280;41294;42.666;23.350;2022-08-16T10:14:11;94616.63;;;32.98;40.31
55424;BME280;41294;42.666;23.350;2022-08-16T10:16:36;94610.03;;;32.69;40.32
55424;BME280;41294;42.666;23.350;2022-08-16T10:19:02;94601.06;;;33.01;40.23
55424;BME280;41294;42.666;23.350;2022-08-16T10:21:27;94607.97;;;33.13;40.53
55424;BME280;41294;42.666;23.350;2022-08-16T10:23:53;94608.06;;;33.50;39.67
55424;BME280;41294;42.666;23.350;2022-08-16T10:26:19;94597.50;;;33.33;39.63
55424;BME280;41294;42.666;23.350;2022-08-16T10:28:45;94594.66;;;33.31;39.58
55424;BME280;41294;42.666;23.350;2022-08-16T10:31:11;94601.91;;;33.26;39.63
55424;BME280;41294;42.666;23.350;2022-08-16T10:33:38;94602.84;;;33.65;39.08
55424;BME280;41294;42.666;23.350;2022-08-16T10:36:05;94602.63;;;34.09;38.43
55424;BME280;41294;42.666;23.350;2022-08-16T10:38:34;94606.16;;;34.11;38.12
55424;BME280;41294;42.666;23.350;2022-08-16T10:41:00;94606.72;;;34.46;38.08
55424;BME280;41294;42.666;23.350;2022-08-16T10:43:27;94598.63;;;34.48;38.25
55424;BME280;41294;42.666;23.350;2022-08-16T10:45:52;94604.34;;;34.16;39.03
55424;BME280;41294;42.666;23.350;2022-08-16T10:48:18;94603.31;;;33.61;38.88
55424;BME280;41294;42.666;23.350;2022-08-16T10:50:43;94603.06;;;33.57;39.12
55424;BME280;41294;42.666;23.350;2022-08-16T10:53:09;94611.41;;;33.37;39.73
55424;BME280;41294;42.666;23.350;2022-08-16T10:55:37;94611.72;;;32.74;41.38
55424;BME280;41294;42.666;23.350;2022-08-16T10:58:04;94604.78;;;32.50;43.76
55424;BME280;41294;42.666;23.350;2022-08-16T11:00:31;94609.59;;;32.29;44.11
55424;BME280;41294;42.666;23.350;2022-08-16T11:02:59;94601.50;;;32.63;43.58
55424;BME280;41294;42.666;23.350;2022-08-16T11:05:24;94614.69;;;32.78;43.33
55424;BME280;41294;42.666;23.350;2022-08-16T11:07:50;94608.41;;;32.87;41.31
55424;BME280;41294;42.666;23.350;2022-08-16T11:10:19;94601.38;;;32.61;42.12
55424;BME280;41294;42.666;23.350;2022-08-16T11:12:45;94602.47;;;32.79;41.28
55424;BME280;41294;42.666;23.350;2022-08-16T11:15:10;94606.34;;;33.08;40.25
55424;BME280;41294;42.666;23.350;2022-08-16T11:17:36;94601.09;;;33.24;38.91
55424;BME280;41294;42.666;23.350;2022-08-16T11:20:05;94597.50;;;33.44;37.65
55424;BME280;41294;42.666;23.350;2022-08-16T11:22:31;94586.81;;;33.48;38.10
55424;BME280;41294;42.666;23.350;2022-08-16T11:24:57;94581.28;;;33.23;38.50
55424;BME280;41294;42.666;23.350;2022-08-16T11:27:22;94584.72;;;33.12;38.77
55424;BME280;41294;42.666;23.350;2022-08-16T11:29:49;94595.41;;;33.20;39.64
55424;BME280;41294;42.666;23.350;2022-08-16T11:32:16;94585.72;;;33.53;39.21
55424;BME280;41294;42.666;23.350;2022-08-16T11:34:43;94578.97;;;33.54;39.06
55424;BME280;41294;42.666;23.350;2022-08-16T11:37:08;94574.97;;;33.32;38.97
55424;BME280;41294;42.666;23.350;2022-08-16T11:39:34;94578.78;;;33.16;39.52
55424;BME280;41294;42.666;23.350;2022-08-16T11:42:00;94574.97;;;32.75;42.70
55424;BME280;41294;42.666;23.350;2022-08-16T11:44:26;94576.72;;;32.70;44.14
55424;BME280;41294;42.666;23.350;2022-08-16T11:46:51;94582.44;;;32.31;44.92
55424;BME280;41294;42.666;23.350;2022-08-16T11:49:18;94584.88;;;31.94;48.96
55424;BME280;41294;42.666;23.350;2022-08-16T11:51:43;94589.38;;;31.48;49.83
55424;BME280;41294;42.666;23.350;2022-08-16T11:54:11;94605.84;;;30.80;53.38
55424;BME280;41294;42.666;23.350;2022-08-16T11:56:37;94641.41;;;30.25;57.05
55424;BME280;41294;42.666;23.350;2022-08-16T11:59:03;94628.66;;;28.81;56.91
55424;BME280;41294;42.666;23.350;2022-08-16T12:01:29;94602.91;;;28.03;56.55
55424;BME280;41294;42.666;23.350;2022-08-16T12:03:54;94602.94;;;27.28;61.66
55424;BME280;41294;42.666;23.350;2022-08-16T12:06:21;94616.50;;;27.61;62.39
55424;BME280;41294;42.666;23.350;2022-08-16T12:08:47;94607.59;;;27.27;57.47
55424;BME280;41294;42.666;23.350;2022-08-16T12:11:15;94602.19;;;27.27;60.47
55424;BME280;41294;42.666;23.350;2022-08-16T12:13:42;94597.19;;;27.82;61.18
55424;BME280;41294;42.666;23.350;2022-08-16T12:16:09;94587.75;;;27.32;60.67
55424;BME280;41294;42.666;23.350;2022-08-16T12:18:36;94584.81;;;26.64;59.47
55424;BME280;41294;42.666;23.350;2022-08-16T12:21:05;94568.38;;;26.94;61.86
55424;BME280;41294;42.666;23.350;2022-08-16T12:23:31;94565.16;;;27.54;61.94
55424;BME280;41294;42.666;23.350;2022-08-16T12:25:57;94553.38;;;27.59;59.76
55424;BME280;41294;42.666;23.350;2022-08-16T12:28:22;94555.16;;;27.81;62.24
55424;BME280;41294;42.666;23.350;2022-08-16T12:30:48;94558.66;;;28.34;64.58
55424;BME280;41294;42.666;23.350;2022-08-16T12:33:15;94551.34;;;28.53;62.42
55424;BME280;41294;42.666;23.350;2022-08-16T12:35:43;94552.69;;;28.71;63.50
55424;BME280;41294;42.666;23.350;2022-08-16T12:38:09;94551.69;;;28.76;63.29
55424;BME280;41294;42.666;23.350;2022-08-16T12:40:38;94553.25;;;28.70;66.03
55424;BME280;41294;42.666;23.350;2022-08-16T12:43:06;94557.53;;;28.73;65.57
55424;BME280;41294;42.666;23.350;2022-08-16T12:45:48;94556.22;;;28.91;65.53
55424;BME280;41294;42.666;23.350;2022-08-16T12:48:17;94554.06;;;28.89;66.22
55424;BME280;41294;42.666;23.350;2022-08-16T12:51:06;94551.53;;;28.74;59.66